Time;durP1;ratioP1;P1;durP2;ratioP2;P2;SDS_P1;SDS_P2;PMS_P1;PMS_P2;Temp;Humidity;BMP_temperature;BMP_pressure;BME280_temperature;BME280_humidity;BME280_pressure;Samples;Min_cycle;Max_cycle;Signal;HPM_P1;HPM_P2
2023/01/11 00:00:47;;;;;;;6.80;6.60;;;10.20;99.90;;;;;;5065486;28;20984;-70
2023/01/11 00:03:14;;;;;;;6.30;6.10;;;10.20;99.90;;;;;;5064250;28;20868;-70
2023/01/11 00:05:42;;;;;;;6.50;6.30;;;10.20;99.90;;;;;;5065828;28;20473;-70
2023/01/11 00:08:10;;;;;;;6.80;6.60;;;10.20;99.90;;;;;;5066787;28;20481;-70
2023/01/11 00:10:37;;;;;;;7.10;6.80;;;10.30;99.90;;;;;;5059405;28;20455;-70
2023/01/11 00:13:06;;;;;;;7.10;6.80;;;10.30;99.90;;;;;;5070988;28;20465;-71
2023/01/11 00:15:36;;;;;;;7.03;6.50;;;10.30;99.90;;;;;;5068325;28;20474;-70
2023/01/11 00:18:04;;;;;;;6.83;6.63;;;10.40;99.90;;;;;;5066056;28;20497;-70
2023/01/11 00:20:31;;;;;;;6.67;6.47;;;10.40;99.90;;;;;;5061520;28;20455;-70
2023/01/11 00:22:58;;;;;;;6.93;6.53;;;10.40;99.90;;;;;;5063632;28;20902;-70
2023/01/11 00:25:25;;;;;;;6.30;6.10;;;10.40;99.90;;;;;;5068138;28;20544;-70
2023/01/11 00:27:53;;;;;;;6.63;6.40;;;10.50;99.90;;;;;;5073998;28;20455;-70
2023/01/11 00:30:22;;;;;;;6.57;6.37;;;10.50;99.90;;;;;;5066433;28;20461;-70
2023/01/11 00:32:49;;;;;;;6.30;6.10;;;10.50;99.90;;;;;;5066695;28;20801;-70
2023/01/11 00:35:16;;;;;;;6.57;6.27;;;10.60;99.90;;;;;;5069931;28;20458;-70
2023/01/11 00:37:43;;;;;;;7.90;7.30;;;10.60;99.90;;;;;;5070108;28;20474;-71
2023/01/11 00:40:11;;;;;;;7.17;6.90;;;10.70;99.90;;;;;;5073385;28;20962;-71
2023/01/11 00:48:09;;;;;;;6.63;6.43;;;10.80;99.90;;;;;;5067661;28;20662;-71
2023/01/11 00:50:38;;;;;;;7.10;6.80;;;10.80;99.90;;;;;;5062815;28;20545;-71
2023/01/11 00:53:06;;;;;;;6.87;6.57;;;10.80;99.90;;;;;;5067251;28;21043;-70
2023/01/11 00:55:33;;;;;;;7.00;6.73;;;10.90;99.90;;;;;;5069089;28;20470;-71
2023/01/11 00:58:01;;;;;;;6.70;6.50;;;10.90;99.90;;;;;;5069029;28;20474;-71
2023/01/11 01:00:30;;;;;;;6.90;6.70;;;11.00;99.90;;;;;;5062675;28;20490;-71
2023/01/11 01:02:57;;;;;;;6.83;6.63;;;11.00;99.90;;;;;;5063636;28;20567;-71
2023/01/11 01:05:25;;;;;;;6.70;6.50;;;11.10;99.90;;;;;;5064673;28;20963;-71
2023/01/11 01:07:52;;;;;;;6.40;6.20;;;11.10;99.90;;;;;;5077113;28;20830;-71
2023/01/11 01:10:20;;;;;;;6.50;6.30;;;11.10;99.90;;;;;;5067816;28;20462;-71
2023/01/11 01:15:33;;;;;;;6.53;6.33;;;11.20;99.90;;;;;;5061007;28;20572;-71
2023/01/11 01:18:00;;;;;;;6.80;6.60;;;11.20;99.90;;;;;;5063092;28;20871;-71
2023/01/11 01:20:27;;;;;;;6.73;6.43;;;11.20;99.90;;;;;;5063115;28;21261;-71
2023/01/11 01:22:54;;;;;;;7.10;6.80;;;11.30;99.90;;;;;;5071398;28;20944;-71
2023/01/11 01:25:21;;;;;;;7.37;7.07;;;11.30;99.90;;;;;;5074481;28;20470;-71
2023/01/11 01:27:48;;;;;;;7.37;7.07;;;11.30;99.90;;;;;;5068263;28;20458;-71
2023/01/11 01:30:15;;;;;;;7.30;7.00;;;11.30;99.90;;;;;;5067379;28;20931;-71
2023/01/11 01:32:43;;;;;;;7.70;7.40;;;11.40;99.90;;;;;;5069646;28;20520;-71
2023/01/11 01:35:10;;;;;;;7.80;7.50;;;11.50;99.90;;;;;;5062546;28;21130;-71
2023/01/11 01:37:36;;;;;;;7.50;7.20;;;11.50;99.90;;;;;;5064555;28;20859;-71
2023/01/11 01:40:03;;;;;;;7.30;7.00;;;11.50;99.90;;;;;;5070774;28;20532;-71
2023/01/11 01:42:30;;;;;;;7.10;6.80;;;11.50;99.90;;;;;;5065261;28;20489;-70
2023/01/11 01:45:04;;;;;;;7.60;7.30;;;11.50;99.90;;;;;;5069529;28;20458;-70
2023/01/11 01:47:39;;;;;;;7.70;7.40;;;11.60;99.90;;;;;;5070076;28;20824;-73
2023/01/11 01:50:12;;;;;;;8.27;7.87;;;11.60;99.90;;;;;;5067218;28;20524;-73
2023/01/11 01:52:42;;;;;;;7.90;7.57;;;11.60;99.90;;;;;;5065589;28;20455;-75
2023/01/11 01:55:12;;;;;;;7.80;7.50;;;11.60;99.90;;;;;;5066907;28;20534;-70
2023/01/11 01:57:41;;;;;;;7.77;7.47;;;11.70;99.90;;;;;;5059493;28;20865;-71
2023/01/11 02:00:10;;;;;;;7.63;7.33;;;11.70;99.90;;;;;;5064675;28;20548;-72
2023/01/11 02:02:38;;;;;;;7.00;6.77;;;11.70;99.90;;;;;;5058750;28;20469;-74
2023/01/11 02:05:08;;;;;;;6.90;6.40;;;11.60;99.90;;;;;;5064260;28;20467;-73
2023/01/11 02:07:38;;;;;;;7.10;6.50;;;11.60;99.90;;;;;;5068423;28;20463;-74
2023/01/11 02:10:08;;;;;;;6.50;6.30;;;11.50;99.90;;;;;;5064982;28;21058;-71
2023/01/11 02:12:38;;;;;;;7.30;7.10;;;11.50;99.90;;;;;;5068062;28;20468;-72
2023/01/11 02:15:06;;;;;;;7.00;6.80;;;11.40;99.90;;;;;;5066810;28;20472;-71
2023/01/11 02:17:33;;;;;;;6.43;6.20;;;11.40;99.90;;;;;;5069057;28;20466;-70
2023/01/11 02:20:40;;;;;;;6.43;6.07;;;11.40;99.90;;;;;;5078063;28;20984;-73
2023/01/11 02:23:48;;;;;;;5.70;5.50;;;11.40;99.90;;;;;;4988710;28;20458;-72
2023/01/11 02:27:03;;;;;;;4.90;4.80;;;11.50;99.90;;;;;;4986218;28;20462;-73
2023/01/11 02:29:41;;;;;;;4.87;4.77;;;11.40;99.90;;;;;;5011483;28;20488;-73
2023/01/11 02:32:19;;;;;;;5.27;4.90;;;11.40;99.90;;;;;;5054568;28;20466;-72
2023/01/11 02:34:54;;;;;;;4.93;4.80;;;11.50;99.90;;;;;;5068911;28;20454;-71
2023/01/11 02:37:32;;;;;;;4.47;4.37;;;11.50;99.90;;;;;;5058368;28;20466;-74
2023/01/11 02:40:07;;;;;;;4.50;4.40;;;11.50;99.90;;;;;;5076029;28;20505;-72
2023/01/11 02:45:37;;;;;;;5.07;4.87;;;11.60;99.90;;;;;;5073345;28;20489;-71
2023/01/11 02:48:13;;;;;;;4.97;4.80;;;11.60;99.90;;;;;;5067095;28;20468;-71
2023/01/11 02:50:46;;;;;;;5.00;4.80;;;11.60;99.90;;;;;;5071501;28;20921;-72
2023/01/11 02:53:18;;;;;;;6.20;5.83;;;11.60;99.90;;;;;;5070179;28;20459;-71
2023/01/11 02:55:50;;;;;;;5.30;5.10;;;11.60;99.90;;;;;;5075269;28;20500;-71
2023/01/11 02:58:19;;;;;;;5.87;5.57;;;11.60;99.90;;;;;;5067891;28;20831;-71
2023/01/11 03:00:49;;;;;;;5.20;5.00;;;11.70;99.90;;;;;;5074034;28;20498;-72
2023/01/11 03:03:17;;;;;;;6.03;5.73;;;11.70;99.90;;;;;;5079910;28;20468;-71
2023/01/11 03:05:50;;;;;;;6.50;6.20;;;11.70;99.90;;;;;;5066488;28;20463;-71
2023/01/11 03:08:40;;;;;;;5.90;5.70;;;11.80;99.90;;;;;;5065964;28;20546;-71
2023/01/11 03:11:10;;;;;;;6.63;6.43;;;11.80;99.90;;;;;;5074139;28;20830;-71
2023/01/11 03:13:53;;;;;;;8.20;7.70;;;11.80;99.90;;;;;;5074158;28;20549;-70
2023/01/11 03:16:25;;;;;;;10.27;9.50;;;11.70;99.90;;;;;;5064557;28;20463;-70
2023/01/11 03:19:14;;;;;;;13.20;12.60;;;11.60;99.90;;;;;;5070735;28;20454;-71
2023/01/11 03:21:52;;;;;;;16.00;14.87;;;11.50;99.90;;;;;;5074779;28;20462;-70
2023/01/11 03:24:28;;;;;;;16.33;14.87;;;11.50;99.90;;;;;;5072728;28;20466;-71
2023/01/11 03:27:08;;;;;;;16.00;15.07;;;11.40;99.90;;;;;;5075273;28;20470;-70
2023/01/11 03:29:42;;;;;;;15.87;15.07;;;11.30;99.90;;;;;;5061515;28;20466;-71
2023/01/11 03:32:20;;;;;;;14.20;13.40;;;11.30;99.90;;;;;;5070793;28;21032;-71
2023/01/11 03:34:57;;;;;;;13.37;12.70;;;11.20;99.90;;;;;;5074561;28;21049;-71
2023/01/11 03:37:30;;;;;;;12.53;12.03;;;11.20;99.90;;;;;;5070238;28;20701;-72
2023/01/11 03:40:03;;;;;;;12.67;12.07;;;11.20;99.90;;;;;;5076980;28;20503;-72
2023/01/11 03:42:33;;;;;;;12.33;11.73;;;11.20;99.90;;;;;;5069025;28;20499;-70
2023/01/11 03:45:02;;;;;;;11.43;10.93;;;11.10;99.90;;;;;;5069473;28;20466;-71
2023/01/11 03:47:32;;;;;;;11.20;10.80;;;11.10;99.90;;;;;;5068317;28;20536;-72
2023/01/11 03:50:03;;;;;;;11.37;10.87;;;11.10;99.90;;;;;;5066333;28;20522;-73
2023/01/11 03:52:34;;;;;;;10.67;9.97;;;11.10;99.90;;;;;;5070610;28;20878;-73
2023/01/11 03:55:04;;;;;;;10.53;9.97;;;11.10;99.90;;;;;;5071381;28;20476;-71
2023/01/11 03:57:34;;;;;;;10.33;9.73;;;11.10;99.90;;;;;;5069984;28;20977;-72
2023/01/11 04:00:02;;;;;;;10.23;9.70;;;11.00;99.90;;;;;;5072794;28;20482;-71
2023/01/11 04:02:35;;;;;;;9.00;8.70;;;11.10;99.90;;;;;;5072256;28;20491;-71
2023/01/11 04:05:02;;;;;;;10.07;9.37;;;11.10;99.90;;;;;;5070790;28;20712;-71
2023/01/11 04:07:30;;;;;;;9.03;8.63;;;11.10;99.90;;;;;;5076706;28;20462;-72
2023/01/11 04:09:57;;;;;;;8.73;8.43;;;11.10;99.90;;;;;;5072476;28;20465;-71
2023/01/11 04:12:24;;;;;;;8.33;7.83;;;11.10;99.90;;;;;;5065353;28;20460;-72
2023/01/11 04:14:51;;;;;;;8.73;8.33;;;11.10;99.90;;;;;;5071563;28;20538;-74
2023/01/11 04:17:18;;;;;;;8.90;8.60;;;11.10;99.90;;;;;;5067820;28;20462;-73
2023/01/11 04:19:47;;;;;;;8.27;7.97;;;11.10;99.90;;;;;;5062933;28;20484;-72
2023/01/11 04:22:14;;;;;;;8.63;8.27;;;11.10;99.90;;;;;;5071705;28;20502;-72
2023/01/11 04:24:41;;;;;;;8.37;7.87;;;11.20;99.90;;;;;;5069943;28;20469;-72
2023/01/11 04:27:07;;;;;;;8.43;8.13;;;11.20;99.90;;;;;;5077844;28;20494;-74
2023/01/11 04:29:34;;;;;;;9.23;8.70;;;11.20;99.90;;;;;;5074244;28;20537;-72
2023/01/11 04:32:02;;;;;;;8.40;8.00;;;11.20;99.90;;;;;;5066260;28;20912;-73
2023/01/11 04:34:29;;;;;;;7.63;7.43;;;11.20;99.90;;;;;;5067911;28;20494;-72
2023/01/11 04:36:58;;;;;;;11.03;9.80;;;11.20;99.90;;;;;;5077391;28;20823;-71
2023/01/11 04:39:25;;;;;;;7.97;7.67;;;11.20;99.90;;;;;;5077610;28;20865;-72
2023/01/11 04:44:36;;;;;;;6.80;6.60;;;11.20;99.90;;;;;;5070319;28;20460;-74
2023/01/11 04:47:02;;;;;;;7.17;6.87;;;11.20;99.90;;;;;;5071357;28;20498;-71
2023/01/11 04:49:29;;;;;;;7.33;7.03;;;11.20;99.90;;;;;;5068248;28;20454;-72
2023/01/11 04:51:58;;;;;;;8.77;8.07;;;11.20;99.90;;;;;;5067178;28;20532;-73
2023/01/11 04:54:25;;;;;;;6.83;6.63;;;11.30;99.90;;;;;;5066790;28;20459;-72
2023/01/11 04:56:53;;;;;;;7.80;7.13;;;11.20;99.90;;;;;;5071770;28;20518;-73
2023/01/11 04:59:19;;;;;;;7.30;6.97;;;11.30;99.90;;;;;;5063962;28;21006;-74
2023/01/11 05:01:46;;;;;;;6.70;6.50;;;11.30;99.90;;;;;;5067206;28;20575;-72
2023/01/11 05:04:13;;;;;;;7.90;7.60;;;11.30;99.90;;;;;;5061420;28;20863;-73
2023/01/11 05:06:40;;;;;;;7.47;7.17;;;11.30;99.90;;;;;;5070607;28;20550;-73
2023/01/11 05:09:13;;;;;;;6.90;6.60;;;11.30;99.90;;;;;;5062845;28;20463;-72
2023/01/11 05:11:39;;;;;;;7.73;7.43;;;11.30;99.90;;;;;;5069130;28;20463;-72
2023/01/11 05:14:06;;;;;;;10.23;8.13;;;11.30;99.90;;;;;;5073390;28;20944;-72
2023/01/11 05:16:33;;;;;;;8.20;7.70;;;11.30;99.90;;;;;;5063203;28;20466;-72
2023/01/11 05:19:01;;;;;;;8.30;7.80;;;11.30;99.90;;;;;;5060841;28;20473;-71
2023/01/11 05:21:31;;;;;;;8.20;7.80;;;11.20;99.90;;;;;;5068745;28;20504;-72
2023/01/11 05:23:59;;;;;;;8.43;7.60;;;11.30;99.90;;;;;;5063263;28;20980;-71
2023/01/11 05:26:29;;;;;;;6.93;6.73;;;11.30;99.90;;;;;;5066579;28;20574;-73
2023/01/11 05:28:57;;;;;;;7.07;6.77;;;11.30;99.90;;;;;;5066815;28;20905;-72
2023/01/11 05:31:24;;;;;;;7.30;6.97;;;11.20;99.90;;;;;;5068963;28;20504;-71
2023/01/11 05:33:51;;;;;;;7.43;7.20;;;11.20;99.90;;;;;;5061800;28;20459;-72
2023/01/11 05:36:20;;;;;;;7.37;7.17;;;11.20;99.90;;;;;;5062182;28;20789;-72
2023/01/11 05:38:48;;;;;;;6.83;6.60;;;11.20;99.90;;;;;;5066064;28;21166;-71
2023/01/11 05:41:16;;;;;;;6.10;5.90;;;11.20;99.90;;;;;;5067312;28;20598;-71
2023/01/11 05:46:27;;;;;;;5.80;5.60;;;11.20;99.90;;;;;;5022029;28;20450;-73
2023/01/11 05:48:55;;;;;;;6.23;5.93;;;11.20;99.90;;;;;;5068663;28;20463;-72
2023/01/11 05:51:22;;;;;;;6.10;5.90;;;11.20;99.90;;;;;;5073763;28;20964;-70
2023/01/11 05:53:50;;;;;;;7.93;6.00;;;11.20;99.90;;;;;;5069804;28;20853;-74
2023/01/11 05:56:17;;;;;;;6.57;6.27;;;11.10;99.90;;;;;;5070116;28;20815;-72
2023/01/11 05:58:47;;;;;;;6.23;6.03;;;11.20;99.90;;;;;;5073405;28;20516;-73
2023/01/11 06:01:14;;;;;;;5.50;5.30;;;11.20;99.90;;;;;;5063475;28;20485;-73
2023/01/11 06:03:42;;;;;;;5.57;5.37;;;11.10;99.90;;;;;;5072989;28;20836;-73
2023/01/11 06:06:09;;;;;;;5.50;5.30;;;11.20;99.90;;;;;;5072153;28;20458;-73
2023/01/11 06:08:35;;;;;;;5.63;5.43;;;11.20;99.90;;;;;;5066456;28;20462;-72
2023/01/11 06:11:02;;;;;;;7.40;5.63;;;11.10;99.90;;;;;;5072257;28;21102;-73
2023/01/11 06:13:30;;;;;;;6.17;5.73;;;11.20;99.90;;;;;;5076074;28;20505;-73
2023/01/11 06:16:01;;;;;;;6.20;6.00;;;11.20;99.90;;;;;;5067626;28;20466;-73
2023/01/11 06:18:29;;;;;;;6.53;6.33;;;11.10;99.90;;;;;;5070533;28;20462;-75
2023/01/11 06:20:56;;;;;;;6.37;5.80;;;11.20;99.90;;;;;;5069196;28;20485;-73
2023/01/11 06:23:23;;;;;;;7.20;6.90;;;11.20;99.90;;;;;;5064814;28;20467;-72
2023/01/11 06:25:51;;;;;;;6.00;5.80;;;11.20;99.90;;;;;;5064166;28;20840;-73
2023/01/11 06:28:18;;;;;;;5.83;5.63;;;11.20;99.90;;;;;;5068967;28;20470;-72
2023/01/11 06:30:50;;;;;;;6.40;6.10;;;11.10;99.90;;;;;;5064263;28;20868;-72
2023/01/11 06:33:18;;;;;;;6.13;5.93;;;11.10;99.90;;;;;;5070634;28;20449;-72
2023/01/11 06:35:45;;;;;;;6.10;5.90;;;11.10;99.90;;;;;;5068459;28;20497;-72
2023/01/11 06:38:13;;;;;;;6.30;6.10;;;11.10;99.90;;;;;;5064887;28;20459;-73
2023/01/11 06:40:41;;;;;;;5.93;5.73;;;11.20;99.90;;;;;;5070673;28;20485;-74
2023/01/11 06:43:08;;;;;;;5.97;5.77;;;11.10;99.90;;;;;;5072402;28;20554;-74
2023/01/11 06:45:37;;;;;;;5.57;5.37;;;11.10;99.90;;;;;;5063047;28;20492;-72
2023/01/11 06:48:05;;;;;;;6.03;5.83;;;11.20;99.90;;;;;;5071995;28;20461;-74
2023/01/11 06:50:34;;;;;;;6.00;5.70;;;11.20;99.90;;;;;;5066902;28;20901;-73
2023/01/11 06:53:01;;;;;;;6.20;6.00;;;11.20;99.90;;;;;;5073891;28;20459;-72
2023/01/11 06:55:29;;;;;;;7.10;6.80;;;11.20;99.90;;;;;;5070860;28;20485;-73
2023/01/11 06:57:56;;;;;;;7.13;6.90;;;11.20;99.90;;;;;;5069817;28;20789;-72
2023/01/11 07:00:23;;;;;;;7.43;7.00;;;11.20;99.90;;;;;;5064969;28;20463;-73
2023/01/11 07:02:50;;;;;;;7.30;7.10;;;11.10;99.90;;;;;;5068801;28;20961;-72
2023/01/11 07:05:18;;;;;;;7.83;7.50;;;11.10;99.90;;;;;;5065268;28;20539;-72
2023/01/11 07:07:46;;;;;;;8.00;7.70;;;11.10;99.90;;;;;;5065842;28;20466;-71
2023/01/11 07:10:15;;;;;;;8.33;8.03;;;11.10;99.90;;;;;;5064460;28;20884;-73
2023/01/11 07:12:42;;;;;;;8.50;8.10;;;11.10;99.90;;;;;;5062578;28;20535;-72
2023/01/11 07:15:10;;;;;;;8.70;7.73;;;11.10;99.90;;;;;;5063105;28;20508;-75
2023/01/11 07:17:38;;;;;;;10.80;7.17;;;11.10;99.90;;;;;;5068740;28;20758;-73
2023/01/11 07:20:06;;;;;;;8.23;7.50;;;11.10;99.90;;;;;;5073408;28;20458;-72
2023/01/11 07:22:35;;;;;;;7.37;7.07;;;11.10;99.90;;;;;;5067552;28;20714;-74
2023/01/11 07:25:03;;;;;;;8.80;7.83;;;11.10;99.90;;;;;;5070768;28;20545;-72
2023/01/11 07:27:30;;;;;;;8.50;8.00;;;11.00;99.90;;;;;;5068688;28;20467;-73
2023/01/11 07:29:58;;;;;;;8.67;8.17;;;11.10;99.90;;;;;;5061939;28;20461;-72
2023/01/11 07:32:26;;;;;;;9.00;8.60;;;11.10;99.90;;;;;;5063740;28;20459;-73
2023/01/11 07:34:53;;;;;;;9.20;8.53;;;11.00;99.90;;;;;;5069008;28;20465;-73
2023/01/11 07:37:21;;;;;;;13.50;12.50;;;11.00;99.90;;;;;;5065143;28;20459;-73
2023/01/11 07:39:48;;;;;;;11.37;9.53;;;11.00;99.90;;;;;;5073056;28;20849;-73
2023/01/11 07:45:07;;;;;;;8.97;8.47;;;11.00;99.90;;;;;;5050371;28;20462;-75
2023/01/11 07:47:33;;;;;;;9.07;8.30;;;11.00;99.90;;;;;;5066331;28;20467;-73
2023/01/11 07:50:00;;;;;;;8.90;8.40;;;11.00;99.90;;;;;;5069394;28;20463;-72
2023/01/11 07:52:28;;;;;;;8.73;8.27;;;11.00;99.90;;;;;;5067204;28;20777;-73
2023/01/11 07:55:01;;;;;;;9.00;8.40;;;10.90;99.90;;;;;;5067472;28;20483;-72
2023/01/11 07:57:29;;;;;;;9.80;8.73;;;10.90;99.90;;;;;;5060415;28;20880;-73
2023/01/11 07:59:56;;;;;;;8.23;7.80;;;11.00;99.90;;;;;;5047013;28;20521;-73
2023/01/11 08:02:23;;;;;;;8.90;8.40;;;10.90;99.90;;;;;;5059168;28;20933;-72
2023/01/11 08:04:50;;;;;;;9.33;8.83;;;10.90;99.90;;;;;;5054143;28;20947;-73
2023/01/11 08:07:17;;;;;;;8.03;7.63;;;10.90;99.90;;;;;;5058873;28;20810;-73
2023/01/11 08:09:43;;;;;;;9.17;8.60;;;10.90;99.90;;;;;;5067969;28;20880;-72
2023/01/11 08:14:56;;;;;;;9.73;9.00;;;10.90;99.90;;;;;;5061458;28;20467;-73
2023/01/11 08:17:23;;;;;;;8.97;8.40;;;11.00;99.90;;;;;;5057574;28;20466;-73
2023/01/11 08:19:51;;;;;;;9.20;8.50;;;11.00;99.90;;;;;;5060670;28;20466;-72
2023/01/11 08:22:18;;;;;;;9.90;9.30;;;11.00;99.90;;;;;;5069201;28;20533;-74
2023/01/11 08:24:45;;;;;;;9.13;8.63;;;10.90;99.90;;;;;;5059387;28;20459;-72
2023/01/11 08:27:11;;;;;;;9.00;8.27;;;10.90;99.90;;;;;;5059665;28;20462;-72
2023/01/11 08:29:42;;;;;;;10.00;9.30;;;11.00;99.90;;;;;;5054621;28;20470;-72
2023/01/11 08:32:11;;;;;;;10.50;9.70;;;11.00;99.90;;;;;;5057460;28;20456;-72
2023/01/11 08:34:37;;;;;;;9.60;9.00;;;11.00;99.90;;;;;;5056081;28;20578;-72
2023/01/11 08:37:04;;;;;;;9.93;9.20;;;11.00;99.90;;;;;;5062917;28;20856;-73
2023/01/11 08:39:31;;;;;;;10.70;9.80;;;11.00;99.90;;;;;;5057803;28;21081;-72
2023/01/11 08:41:58;;;;;;;10.20;9.50;;;10.90;99.90;;;;;;5061355;28;20479;-72
2023/01/11 08:44:25;;;;;;;10.80;9.80;;;10.90;99.90;;;;;;5046059;28;20754;-73
2023/01/11 08:46:53;;;;;;;11.50;10.33;;;10.90;99.90;;;;;;5061345;28;22018;-73
2023/01/11 08:49:21;;;;;;;12.57;11.57;;;11.00;99.90;;;;;;5060328;28;20458;-73
2023/01/11 08:51:48;;;;;;;13.40;11.77;;;11.00;99.90;;;;;;5054542;28;20467;-72
2023/01/11 08:54:16;;;;;;;11.97;10.77;;;11.00;99.90;;;;;;5056647;28;20566;-73
2023/01/11 08:56:43;;;;;;;15.53;11.10;;;11.00;99.90;;;;;;5057102;28;20999;-72
2023/01/11 08:59:11;;;;;;;19.53;11.93;;;11.00;99.90;;;;;;5052149;28;20474;-72
2023/01/11 09:01:38;;;;;;;16.60;12.40;;;11.00;99.90;;;;;;5058544;28;20486;-73
2023/01/11 09:04:05;;;;;;;15.73;11.80;;;10.90;99.90;;;;;;5059495;28;20483;-74
2023/01/11 09:06:33;;;;;;;19.03;11.77;;;10.90;99.90;;;;;;5054856;28;20476;-71
2023/01/11 09:09:00;;;;;;;16.40;11.67;;;10.90;99.90;;;;;;5061249;28;20469;-73
2023/01/11 09:14:11;;;;;;;20.17;11.87;;;10.90;99.90;;;;;;5056776;28;20462;-72
2023/01/11 09:16:38;;;;;;;16.27;12.17;;;10.90;99.90;;;;;;5060946;28;20719;-73
2023/01/11 09:19:04;;;;;;;27.13;12.80;;;10.90;99.90;;;;;;5063744;28;20531;-72
2023/01/11 09:21:32;;;;;;;21.57;11.73;;;10.90;99.90;;;;;;5058569;28;20502;-71
2023/01/11 09:23:59;;;;;;;35.73;12.50;;;10.80;99.90;;;;;;5060299;28;20512;-72
2023/01/11 09:26:26;;;;;;;14.13;10.87;;;10.90;99.90;;;;;;5056658;28;20900;-71
2023/01/11 09:28:53;;;;;;;22.23;11.80;;;10.90;99.90;;;;;;5059060;28;20458;-71
2023/01/11 09:31:19;;;;;;;22.03;11.47;;;10.80;99.90;;;;;;5061675;28;20470;-72
2023/01/11 09:33:46;;;;;;;20.67;12.10;;;10.80;99.90;;;;;;5057428;28;20484;-72
2023/01/11 09:36:13;;;;;;;14.00;12.30;;;10.80;99.90;;;;;;5060577;28;20459;-72
2023/01/11 09:38:42;;;;;;;18.70;11.60;;;10.80;99.90;;;;;;5058864;28;20934;-72
2023/01/11 09:41:23;;;;;;;24.37;12.70;;;10.80;99.90;;;;;;5021305;28;21071;-73
2023/01/11 09:43:56;;;;;;;16.60;11.10;;;10.80;99.90;;;;;;5024207;28;20480;-71
2023/01/11 09:46:26;;;;;;;21.00;12.10;;;10.70;99.90;;;;;;5022928;28;20491;-71
2023/01/11 09:48:57;;;;;;;19.77;12.20;;;10.70;99.90;;;;;;5030801;28;20466;-72
2023/01/11 09:51:31;;;;;;;25.23;12.80;;;10.70;99.90;;;;;;5017104;28;20464;-71
2023/01/11 09:54:00;;;;;;;21.63;12.60;;;10.70;99.90;;;;;;5022354;28;20464;-72
2023/01/11 09:56:35;;;;;;;21.20;12.87;;;10.70;99.90;;;;;;5013568;28;20931;-72
2023/01/11 09:59:13;;;;;;;22.07;13.10;;;10.80;99.90;;;;;;5029032;28;20836;-71
2023/01/11 10:01:45;;;;;;;22.87;13.20;;;10.70;99.90;;;;;;5024940;28;20513;-72
2023/01/11 10:04:35;;;;;;;22.53;12.50;;;10.70;99.90;;;;;;5023561;28;20456;-73
2023/01/11 10:07:37;;;;;;;16.53;12.77;;;10.70;99.90;;;;;;5019450;28;20464;-70
2023/01/11 10:10:20;;;;;;;26.00;13.53;;;10.60;99.90;;;;;;5000244;28;20467;-71
2023/01/11 10:12:55;;;;;;;24.93;13.93;;;10.60;99.90;;;;;;5022493;28;20540;-71
2023/01/11 10:15:31;;;;;;;19.03;12.10;;;10.60;99.90;;;;;;5019907;28;20473;-71
2023/01/11 10:18:17;;;;;;;23.70;12.80;;;10.60;99.90;;;;;;5023543;28;21340;-71
2023/01/11 10:20:50;;;;;;;23.67;11.60;;;10.60;99.90;;;;;;5023408;28;20972;-71
2023/01/11 10:23:24;;;;;;;22.90;12.23;;;10.70;99.90;;;;;;5022163;28;21034;-70
2023/01/11 10:25:59;;;;;;;15.80;11.87;;;10.80;99.90;;;;;;5020571;28;20524;-71
2023/01/11 10:28:34;;;;;;;16.80;10.73;;;10.70;99.90;;;;;;5020613;28;20460;-72
2023/01/11 10:31:25;;;;;;;17.73;12.50;;;10.70;99.90;;;;;;5024436;28;20465;-72
2023/01/11 10:34:12;;;;;;;21.40;12.70;;;10.60;99.90;;;;;;5022896;28;20487;-70
2023/01/11 10:37:03;;;;;;;17.60;12.40;;;10.60;99.90;;;;;;5025883;28;20478;-72
2023/01/11 10:39:54;;;;;;;19.50;12.10;;;10.40;99.90;;;;;;5036268;28;20499;-72
2023/01/11 10:42:25;;;;;;;17.10;13.03;;;10.40;99.90;;;;;;5060777;28;20489;-72
2023/01/11 10:45:00;;;;;;;19.03;13.63;;;10.40;99.90;;;;;;5066869;28;20481;-74
2023/01/11 10:47:31;;;;;;;19.30;12.20;;;10.50;99.90;;;;;;5069681;28;20734;-72
2023/01/11 10:50:02;;;;;;;25.57;12.50;;;10.40;99.90;;;;;;5068902;28;20481;-71
2023/01/11 10:52:36;;;;;;;13.67;12.30;;;10.30;99.90;;;;;;5072193;28;20473;-73
2023/01/11 10:55:13;;;;;;;28.07;12.10;;;10.40;99.90;;;;;;5063726;28;20924;-71
2023/01/11 10:57:51;;;;;;;21.53;13.40;;;10.40;99.90;;;;;;5061156;28;20576;-71
2023/01/11 11:00:26;;;;;;;16.57;12.83;;;10.40;99.90;;;;;;5061897;28;20482;-70
2023/01/11 11:03:11;;;;;;;21.50;13.00;;;10.40;99.90;;;;;;5064116;28;20483;-72
2023/01/11 11:05:47;;;;;;;15.27;13.67;;;10.40;99.90;;;;;;5063627;28;20765;-71
2023/01/11 11:08:25;;;;;;;17.33;13.07;;;10.40;99.90;;;;;;5071105;28;20480;-73
2023/01/11 11:10:56;;;;;;;16.63;12.67;;;10.50;99.90;;;;;;5065429;28;20476;-72
2023/01/11 11:13:37;;;;;;;14.63;13.13;;;10.60;99.90;;;;;;5062945;28;20817;-71
2023/01/11 11:16:13;;;;;;;20.13;13.67;;;10.80;99.90;;;;;;5065115;28;20941;-70
2023/01/11 11:18:42;;;;;;;17.67;12.90;;;11.00;99.90;;;;;;5058445;28;20462;-73
2023/01/11 11:21:19;;;;;;;18.43;13.87;;;11.30;99.90;;;;;;5065005;28;20486;-71
2023/01/11 11:23:50;;;;;;;15.43;14.00;;;11.50;99.90;;;;;;5064155;28;20493;-70
2023/01/11 11:26:17;;;;;;;25.70;14.27;;;11.90;99.90;;;;;;5066735;28;20513;-70
2023/01/11 11:29:00;;;;;;;24.37;15.03;;;11.50;99.90;;;;;;5071656;28;20554;-71
2023/01/11 11:31:28;;;;;;;16.47;13.37;;;11.30;99.90;;;;;;5070154;28;20830;-71
2023/01/11 11:33:55;;;;;;;16.57;14.90;;;11.30;99.90;;;;;;5064478;28;20538;-71
2023/01/11 11:36:24;;;;;;;17.73;15.70;;;11.20;99.90;;;;;;5066661;28;20463;-73
2023/01/11 11:39:04;;;;;;;19.07;15.13;;;11.10;99.90;;;;;;5065449;28;21026;-70
2023/01/11 11:41:46;;;;;;;20.60;15.23;;;10.90;99.90;;;;;;5068930;28;20889;-71
2023/01/11 11:44:19;;;;;;;20.23;15.43;;;10.80;99.90;;;;;;5067889;28;20482;-73
2023/01/11 11:47:00;;;;;;;22.83;16.23;;;10.90;99.90;;;;;;5059461;28;20463;-70
2023/01/11 11:49:28;;;;;;;17.73;16.10;;;11.00;99.90;;;;;;5065254;28;20967;-73
2023/01/11 11:51:55;;;;;;;17.43;15.70;;;11.30;99.90;;;;;;5061426;28;20969;-70
2023/01/11 11:54:27;;;;;;;16.87;15.37;;;11.70;99.90;;;;;;5063840;28;20914;-71
2023/01/11 11:56:55;;;;;;;18.30;16.37;;;11.90;99.90;;;;;;5061079;28;21267;-70
2023/01/11 11:59:28;;;;;;;17.67;16.47;;;12.00;99.90;;;;;;5063530;28;20469;-73
2023/01/11 12:01:58;;;;;;;19.37;17.43;;;12.20;99.90;;;;;;5065182;28;20465;-71
2023/01/11 12:04:37;;;;;;;18.80;16.90;;;12.20;99.90;;;;;;5060137;28;20545;-73
2023/01/11 12:07:07;;;;;;;19.83;16.50;;;12.00;99.90;;;;;;5060881;28;20465;-70
2023/01/11 12:09:36;;;;;;;18.60;17.23;;;12.20;99.90;;;;;;5064203;28;20841;-71
2023/01/11 12:12:04;;;;;;;20.50;17.33;;;12.20;99.90;;;;;;5063739;28;20459;-70
2023/01/11 12:14:34;;;;;;;17.83;16.50;;;12.20;99.90;;;;;;5069477;28;20473;-70
2023/01/11 12:17:21;;;;;;;25.00;16.60;;;12.30;99.90;;;;;;5068712;28;20509;-71
2023/01/11 12:19:49;;;;;;;24.70;17.70;;;12.20;99.90;;;;;;5071631;28;20451;-71
2023/01/11 12:22:19;;;;;;;27.03;18.80;;;12.30;99.90;;;;;;5060088;28;20482;-71
2023/01/11 12:24:47;;;;;;;19.63;17.33;;;12.40;99.90;;;;;;5069069;28;20488;-73
2023/01/11 12:27:29;;;;;;;18.10;16.37;;;12.60;99.90;;;;;;5064676;28;20463;-71
2023/01/11 12:30:23;;;;;;;18.13;16.50;;;12.50;99.90;;;;;;5067175;28;20466;-71
2023/01/11 12:33:16;;;;;;;19.43;17.40;;;12.40;99.90;;;;;;5057880;28;20485;-74
2023/01/11 12:35:51;;;;;;;24.07;17.47;;;12.60;99.90;;;;;;5056080;28;20471;-73
2023/01/11 12:38:31;;;;;;;17.57;16.40;;;13.00;99.90;;;;;;5058906;28;20463;-71
2023/01/11 12:41:12;;;;;;;21.07;17.23;;;12.70;99.90;;;;;;5065504;28;20512;-71
2023/01/11 12:44:02;;;;;;;18.00;16.27;;;12.80;99.90;;;;;;5068690;28;20990;-71
2023/01/11 12:46:45;;;;;;;19.07;17.57;;;12.90;99.90;;;;;;5071191;28;20458;-75
2023/01/11 12:49:32;;;;;;;19.30;17.37;;;12.70;99.90;;;;;;5070177;28;20855;-72
2023/01/11 12:52:28;;;;;;;18.50;17.17;;;12.70;99.90;;;;;;5063446;28;20470;-72
2023/01/11 12:55:11;;;;;;;18.80;17.17;;;12.70;99.90;;;;;;5062412;28;20459;-71
2023/01/11 12:57:49;;;;;;;18.77;16.93;;;12.80;99.90;;;;;;5063902;28;20459;-71
2023/01/11 13:00:26;;;;;;;21.00;16.90;;;13.10;99.90;;;;;;5064626;28;20470;-71
2023/01/11 13:03:22;;;;;;;21.60;16.97;;;12.90;99.90;;;;;;5060854;28;20491;-71
2023/01/11 13:06:00;;;;;;;20.67;17.30;;;12.80;99.90;;;;;;5062305;28;20467;-70
2023/01/11 13:08:44;;;;;;;19.70;17.40;;;12.80;99.90;;;;;;5062376;28;20574;-71
2023/01/11 13:11:33;;;;;;;22.73;17.90;;;13.00;99.90;;;;;;5062659;28;20463;-73
2023/01/11 13:14:14;;;;;;;19.00;17.20;;;13.00;99.90;;;;;;5061736;28;20793;-70
2023/01/11 13:16:46;;;;;;;19.60;17.73;;;12.70;99.90;;;;;;5061549;28;20459;-70
2023/01/11 13:19:20;;;;;;;19.43;17.83;;;12.50;99.90;;;;;;5064300;28;20582;-71
2023/01/11 13:21:52;;;;;;;19.83;16.53;;;12.10;99.90;;;;;;5064380;28;20932;-71
2023/01/11 13:24:25;;;;;;;18.50;16.80;;;12.00;99.90;;;;;;5067135;28;20609;-74